Time;durP1;ratioP1;P1;durP2;ratioP2;P2;SDS_P1;SDS_P2;PMS_P1;PMS_P2;Temp;Humidity;BMP_temperature;BMP_pressure;BME280_temperature;BME280_humidity;BME280_pressure;Samples;Min_cycle;Max_cycle;Signal;HPM_P1;HPM_P2
2023/01/26 00:00:04;;;;;;;14.70;13.35;;;6.30;99.90;;;;;;5027801;29;20747;-73
2023/01/26 00:02:35;;;;;;;14.02;12.93;;;5.90;99.90;;;;;;5027869;29;20045;-72
2023/01/26 00:05:06;;;;;;;13.50;12.57;;;6.00;99.90;;;;;;5027796;29;20025;-71
2023/01/26 00:07:41;;;;;;;18.77;17.05;;;5.70;99.90;;;;;;5027806;29;20162;-71
2023/01/26 00:10:12;;;;;;;10.80;9.73;;;5.50;99.90;;;;;;5027731;29;20072;-75
2023/01/26 00:12:43;;;;;;;12.65;10.00;;;5.60;99.90;;;;;;5027959;29;20030;-75
2023/01/26 00:15:14;;;;;;;11.15;10.05;;;5.80;99.90;;;;;;5027766;29;20406;-75
2023/01/26 00:17:45;;;;;;;10.73;9.65;;;6.00;99.90;;;;;;5027895;29;20044;-75
2023/01/26 00:20:15;;;;;;;11.75;10.57;;;6.10;99.90;;;;;;5027454;29;20104;-75
2023/01/26 00:22:46;;;;;;;11.48;10.38;;;5.70;99.90;;;;;;5027707;29;20067;-74
2023/01/26 00:25:17;;;;;;;12.77;11.52;;;5.80;99.90;;;;;;5027548;29;20033;-75
2023/01/26 00:27:48;;;;;;;12.65;11.20;;;5.90;99.90;;;;;;5027562;29;20034;-75
2023/01/26 00:30:20;;;;;;;11.60;10.52;;;5.40;99.90;;;;;;5027634;29;20048;-72
2023/01/26 00:32:51;;;;;;;9.70;8.80;;;5.50;99.90;;;;;;5027459;29;20021;-75
2023/01/26 00:35:22;;;;;;;11.07;10.07;;;5.50;99.90;;;;;;5027514;29;20038;-75
2023/01/26 00:37:53;;;;;;;12.15;11.15;;;5.50;99.90;;;;;;5027549;29;20155;-75
2023/01/26 00:40:25;;;;;;;12.20;10.80;;;5.80;99.90;;;;;;5027504;29;20037;-75
2023/01/26 00:42:58;;;;;;;12.68;11.63;;;6.30;99.90;;;;;;5027457;29;20028;-71
2023/01/26 00:45:28;;;;;;;12.43;11.00;;;6.00;99.90;;;;;;5027376;29;20033;-75
2023/01/26 00:47:59;;;;;;;11.10;10.10;;;5.60;99.90;;;;;;5027436;29;20028;-75
2023/01/26 00:50:33;;;;;;;12.95;11.80;;;5.70;99.90;;;;;;5027285;29;20045;-71
2023/01/26 00:53:15;;;;;;;9.45;8.55;;;5.40;99.90;;;;;;5027270;29;20029;-71
2023/01/26 00:55:56;;;;;;;15.52;9.95;;;5.80;99.90;;;;;;5027317;29;20471;-71
2023/01/26 00:58:30;;;;;;;12.80;9.40;;;5.80;99.90;;;;;;5027447;29;20026;-71
2023/01/26 01:01:07;;;;;;;9.38;8.48;;;5.40;99.90;;;;;;5025957;29;20484;-71
2023/01/26 01:03:38;;;;;;;10.35;9.00;;;5.90;99.90;;;;;;5027557;29;20033;-72
2023/01/26 01:06:09;;;;;;;10.50;8.75;;;5.30;99.90;;;;;;5030896;29;20431;-70
2023/01/26 01:08:40;;;;;;;10.82;7.90;;;5.50;99.90;;;;;;5030772;29;20029;-75
2023/01/26 01:11:11;;;;;;;10.25;9.25;;;6.00;99.90;;;;;;5030670;29;20045;-72
2023/01/26 01:13:42;;;;;;;10.15;9.25;;;5.50;99.90;;;;;;5030775;29;20474;-75
2023/01/26 01:16:15;;;;;;;9.88;8.82;;;5.90;99.90;;;;;;5028800;29;20038;-71
2023/01/26 01:18:46;;;;;;;12.32;9.15;;;5.90;99.90;;;;;;5030235;29;20026;-71
2023/01/26 01:21:17;;;;;;;10.63;8.70;;;6.00;99.90;;;;;;5030580;29;20045;-75
2023/01/26 01:23:48;;;;;;;11.63;9.18;;;5.30;99.90;;;;;;5030494;29;20068;-74
2023/01/26 01:26:19;;;;;;;12.02;9.77;;;5.70;99.90;;;;;;5044703;29;20078;-74
2023/01/26 01:28:54;;;;;;;15.20;11.00;;;5.60;99.90;;;;;;5030373;29;20471;-73
2023/01/26 01:31:25;;;;;;;11.93;9.18;;;5.70;99.90;;;;;;5030242;29;20037;-75
2023/01/26 01:33:56;;;;;;;11.70;8.70;;;5.50;99.90;;;;;;5030197;29;20026;-71
2023/01/26 01:36:28;;;;;;;10.15;9.15;;;5.70;99.90;;;;;;5030370;29;20464;-72
2023/01/26 01:39:00;;;;;;;12.85;9.57;;;5.40;99.90;;;;;;5029046;29;20477;-75
2023/01/26 01:41:30;;;;;;;11.18;9.85;;;5.40;99.90;;;;;;5032741;29;20045;-72
2023/01/26 01:44:17;;;;;;;9.23;8.32;;;5.50;99.90;;;;;;5049245;29;20381;-70
2023/01/26 01:47:02;;;;;;;10.90;8.30;;;5.80;99.90;;;;;;5049265;29;20606;-71
2023/01/26 01:49:37;;;;;;;10.18;8.20;;;5.80;99.90;;;;;;5048980;29;20033;-71
2023/01/26 01:52:25;;;;;;;10.77;8.48;;;5.40;99.90;;;;;;5049376;29;20091;-71
2023/01/26 01:55:06;;;;;;;11.48;9.90;;;5.30;99.90;;;;;;5049187;29;20029;-71
2023/01/26 01:57:51;;;;;;;12.10;10.35;;;5.40;99.90;;;;;;5049350;29;20033;-70
2023/01/26 02:00:23;;;;;;;12.93;8.93;;;5.90;99.90;;;;;;5049321;29;20029;-75
2023/01/26 02:03:13;;;;;;;11.40;9.95;;;5.60;99.90;;;;;;5049030;29;20025;-75
2023/01/26 02:06:06;;;;;;;11.77;9.65;;;5.40;99.90;;;;;;5049106;29;20101;-74
2023/01/26 02:08:46;;;;;;;12.88;9.40;;;5.60;99.90;;;;;;5049067;29;20533;-71
2023/01/26 02:11:28;;;;;;;11.38;9.48;;;5.40;99.90;;;;;;5048917;29;20037;-75
2023/01/26 02:14:01;;;;;;;13.30;10.88;;;5.70;99.90;;;;;;5048954;29;20127;-75
2023/01/26 02:16:32;;;;;;;14.38;10.27;;;5.70;99.90;;;;;;5048215;29;20130;-75
2023/01/26 02:19:04;;;;;;;13.35;10.80;;;5.90;99.90;;;;;;5048509;29;20111;-71
2023/01/26 02:21:35;;;;;;;13.55;11.57;;;5.60;99.90;;;;;;5048765;29;20080;-75
2023/01/26 02:24:06;;;;;;;8.88;8.00;;;5.50;99.90;;;;;;5048732;29;20029;-76
2023/01/26 02:26:37;;;;;;;12.25;9.48;;;5.60;99.90;;;;;;5048761;29;20033;-70
2023/01/26 02:29:10;;;;;;;10.82;8.95;;;5.80;99.90;;;;;;5048578;29;20354;-75
2023/01/26 02:31:41;;;;;;;14.40;9.75;;;5.60;99.90;;;;;;5048621;29;20119;-75
2023/01/26 02:34:12;;;;;;;12.90;8.65;;;5.70;99.90;;;;;;5046669;29;20033;-73
2023/01/26 02:36:43;;;;;;;11.05;9.15;;;5.80;99.90;;;;;;5029121;29;20060;-75
2023/01/26 02:39:26;;;;;;;10.88;9.45;;;5.80;99.90;;;;;;5029277;29;20036;-74
2023/01/26 02:44:46;;;;;;;11.02;8.05;;;5.60;99.90;;;;;;5030560;29;20058;-76
2023/01/26 02:47:18;;;;;;;12.05;8.45;;;5.80;99.90;;;;;;5048209;29;20025;-72
2023/01/26 02:49:49;;;;;;;13.70;10.25;;;5.90;99.90;;;;;;5047903;29;20052;-73
2023/01/26 02:52:26;;;;;;;14.88;8.52;;;5.80;99.90;;;;;;5048101;29;20033;-76
2023/01/26 02:57:46;;;;;;;13.93;9.98;;;5.80;99.90;;;;;;5048230;29;20439;-71
2023/01/26 03:00:19;;;;;;;12.32;11.02;;;5.80;99.90;;;;;;5046267;29;20393;-71
2023/01/26 03:02:53;;;;;;;12.20;10.70;;;6.20;99.90;;;;;;5027480;29;20033;-71
2023/01/26 03:05:24;;;;;;;17.83;12.88;;;6.00;99.90;;;;;;5028771;29;20543;-74
2023/01/26 03:07:55;;;;;;;15.52;12.60;;;5.80;99.90;;;;;;5028878;29;20382;-76
2023/01/26 03:10:26;;;;;;;15.32;13.63;;;6.20;99.90;;;;;;5028654;29;20042;-75
2023/01/26 03:12:57;;;;;;;15.55;13.90;;;6.20;99.90;;;;;;5028487;29;20029;-71
2023/01/26 03:15:41;;;;;;;18.67;14.27;;;6.30;99.90;;;;;;5028506;29;20502;-76
2023/01/26 03:27:25;;;;;;;16.38;11.80;;;5.90;99.90;;;;;;5006300;29;20491;-75
2023/01/26 03:29:57;;;;;;;16.17;12.35;;;5.80;99.90;;;;;;5037086;29;20458;-75
2023/01/26 03:32:28;;;;;;;16.67;11.85;;;5.90;99.90;;;;;;5047589;29;20025;-71
2023/01/26 03:34:58;;;;;;;14.13;11.80;;;5.90;99.90;;;;;;5047537;29;20033;-74
2023/01/26 03:37:35;;;;;;;18.23;13.82;;;5.80;99.90;;;;;;5047397;29;20033;-73
2023/01/26 03:57:02;;;;;;;20.65;12.00;;;6.10;99.90;;;;;;5047369;29;20100;-71
2023/01/26 03:59:38;;;;;;;27.80;16.08;;;6.10;99.90;;;;;;5061398;29;20029;-71
2023/01/26 04:10:39;;;;;;;22.73;13.25;;;6.20;99.90;;;;;;5027735;29;20053;-75
2023/01/26 04:21:38;;;;;;;20.13;12.63;;;6.00;99.90;;;;;;5027535;29;20132;-71
2023/01/26 04:24:12;;;;;;;21.48;12.57;;;6.40;99.90;;;;;;5027606;29;20114;-73
2023/01/26 04:26:43;;;;;;;15.25;13.63;;;6.30;99.90;;;;;;5033934;29;20468;-75
2023/01/26 04:29:15;;;;;;;16.27;11.00;;;6.60;99.90;;;;;;5046829;29;20096;-73
2023/01/26 04:31:46;;;;;;;19.27;15.45;;;6.50;99.90;;;;;;5046917;29;20061;-71
2023/01/26 04:34:17;;;;;;;22.67;16.75;;;6.70;99.90;;;;;;5046949;29;20105;-72
2023/01/26 04:36:47;;;;;;;24.00;19.45;;;6.60;99.90;;;;;;5046792;29;20036;-72
2023/01/26 04:39:18;;;;;;;27.92;19.95;;;6.50;99.90;;;;;;5049292;29;20025;-75
2023/01/26 04:41:49;;;;;;;25.48;19.38;;;6.60;99.90;;;;;;5050499;29;20036;-75
2023/01/26 04:44:20;;;;;;;19.10;14.07;;;6.50;99.90;;;;;;5050418;29;20025;-73
2023/01/26 04:46:51;;;;;;;14.02;10.27;;;6.70;99.90;;;;;;5050342;29;20097;-74
2023/01/26 04:49:22;;;;;;;20.05;12.35;;;6.80;99.90;;;;;;5050145;29;20366;-71
2023/01/26 04:51:52;;;;;;;16.63;14.40;;;6.70;99.90;;;;;;5064675;29;20041;-76
2023/01/26 04:54:23;;;;;;;18.58;12.15;;;6.40;99.90;;;;;;5050303;29;20025;-75
2023/01/26 04:56:54;;;;;;;22.20;12.63;;;6.80;99.90;;;;;;5050109;29;20067;-76
2023/01/26 04:59:25;;;;;;;27.55;18.15;;;6.70;99.90;;;;;;5050141;29;20057;-75
2023/01/26 05:01:56;;;;;;;20.80;13.68;;;6.80;99.90;;;;;;5050098;29;20423;-75
2023/01/26 05:04:27;;;;;;;24.77;16.60;;;6.80;99.90;;;;;;5047178;29;20104;-72
2023/01/26 05:06:58;;;;;;;16.58;11.18;;;6.90;99.90;;;;;;5050033;29;20116;-72
2023/01/26 05:09:28;;;;;;;21.08;13.45;;;6.80;99.90;;;;;;5049965;29;20032;-72
2023/01/26 05:12:32;;;;;;;17.92;11.07;;;7.00;99.90;;;;;;5049928;29;20485;-73
2023/01/26 05:14:50;;;;;;;18.60;13.70;;;6.80;99.90;;;;;;5049760;29;20036;-75
2023/01/26 05:17:21;;;;;;;22.20;13.90;;;6.90;99.90;;;;;;5064212;29;20381;-71
2023/01/26 05:19:52;;;;;;;30.17;17.33;;;6.90;99.90;;;;;;5049439;29;20063;-71
2023/01/26 05:22:22;;;;;;;19.90;14.38;;;7.00;99.90;;;;;;5049747;29;20029;-75
2023/01/26 05:24:53;;;;;;;22.52;12.27;;;6.70;99.90;;;;;;5049821;29;20496;-75
2023/01/26 05:27:24;;;;;;;34.17;16.98;;;6.70;99.90;;;;;;5064007;29;20032;-73
2023/01/26 05:29:59;;;;;;;18.85;11.45;;;7.00;99.90;;;;;;5049525;29;20116;-75
2023/01/26 05:32:30;;;;;;;27.13;15.15;;;6.90;99.90;;;;;;5049558;29;20029;-72
2023/01/26 05:35:01;;;;;;;16.80;11.52;;;7.20;99.90;;;;;;5064189;29;20033;-72
2023/01/26 05:37:33;;;;;;;15.48;10.30;;;7.20;99.90;;;;;;5063976;29;20123;-72
2023/01/26 05:40:04;;;;;;;15.30;10.55;;;6.90;99.90;;;;;;5049451;29;20037;-74
2023/01/26 05:42:35;;;;;;;14.68;11.70;;;7.10;99.90;;;;;;5049461;29;20550;-75
2023/01/26 05:45:06;;;;;;;15.07;9.25;;;7.10;99.90;;;;;;5049620;29;20033;-72
2023/01/26 05:47:37;;;;;;;23.77;13.00;;;7.30;99.90;;;;;;5048375;29;20462;-71
2023/01/26 05:50:09;;;;;;;22.67;14.00;;;7.00;99.90;;;;;;5048424;29;20607;-72
2023/01/26 05:52:41;;;;;;;16.58;11.10;;;7.10;99.90;;;;;;5049260;29;20085;-72
2023/01/26 05:55:12;;;;;;;18.77;8.50;;;7.30;99.90;;;;;;5049303;29;20066;-75
2023/01/26 05:57:43;;;;;;;14.18;7.90;;;7.30;99.90;;;;;;5049226;29;20024;-71
2023/01/26 06:00:14;;;;;;;25.05;11.85;;;7.30;99.90;;;;;;5049175;29;20033;-74
2023/01/26 06:02:45;;;;;;;15.57;10.18;;;7.00;99.90;;;;;;5038597;29;20104;-74
2023/01/26 06:05:16;;;;;;;13.27;9.32;;;7.00;99.90;;;;;;5044062;29;20116;-72
2023/01/26 06:07:47;;;;;;;15.45;8.60;;;7.00;99.90;;;;;;5029593;29;20047;-72
2023/01/26 06:10:18;;;;;;;11.75;8.20;;;7.20;99.90;;;;;;5029794;29;20042;-76
2023/01/26 06:12:49;;;;;;;11.45;7.28;;;7.40;99.90;;;;;;5029595;29;20061;-73
2023/01/26 06:15:20;;;;;;;12.15;7.38;;;7.10;99.90;;;;;;5029607;29;20504;-72
2023/01/26 06:17:50;;;;;;;15.02;8.07;;;7.30;99.90;;;;;;5029444;29;20036;-72
2023/01/26 06:20:21;;;;;;;17.42;12.82;;;7.30;99.90;;;;;;5029109;29;20061;-74
2023/01/26 06:22:52;;;;;;;13.13;8.45;;;7.50;99.90;;;;;;5029489;29;20432;-76
2023/01/26 06:25:23;;;;;;;14.18;8.32;;;7.40;99.90;;;;;;5029378;29;20032;-75
2023/01/26 06:27:57;;;;;;;15.30;7.68;;;7.10;99.90;;;;;;5029510;29;20075;-75
2023/01/26 06:30:28;;;;;;;12.60;7.90;;;7.30;99.90;;;;;;5029151;29;20041;-71
2023/01/26 06:32:59;;;;;;;13.50;9.63;;;7.30;99.90;;;;;;5032734;29;20033;-71
2023/01/26 06:35:30;;;;;;;12.07;10.05;;;7.50;99.90;;;;;;5038524;29;20542;-71
2023/01/26 06:38:01;;;;;;;14.30;7.53;;;7.40;99.90;;;;;;5038821;29;20026;-71
2023/01/26 06:40:32;;;;;;;11.07;6.80;;;7.60;99.90;;;;;;5045135;29;20466;-76
2023/01/26 06:43:03;;;;;;;8.80;7.25;;;7.40;99.90;;;;;;5043322;29;20032;-75
2023/01/26 06:45:34;;;;;;;12.82;6.03;;;7.40;99.90;;;;;;5044078;29;20501;-74
2023/01/26 06:48:05;;;;;;;9.93;8.05;;;7.70;99.90;;;;;;5037570;29;20033;-74
2023/01/26 06:50:36;;;;;;;9.68;6.07;;;7.60;99.90;;;;;;5035032;29;20086;-75
2023/01/26 06:53:29;;;;;;;10.82;5.15;;;7.60;99.90;;;;;;5029024;29;20029;-75
2023/01/26 06:55:59;;;;;;;11.35;9.45;;;7.70;99.90;;;;;;5029018;29;20431;-73
2023/01/26 06:58:30;;;;;;;11.90;9.20;;;7.90;99.90;;;;;;5029000;29;20086;-74
2023/01/26 07:01:01;;;;;;;13.65;11.98;;;7.80;99.90;;;;;;5028610;29;20378;-73
2023/01/26 07:03:32;;;;;;;16.15;9.20;;;7.90;99.90;;;;;;5043082;29;20068;-71
2023/01/26 07:06:04;;;;;;;14.93;13.20;;;7.90;99.90;;;;;;5028576;29;20014;-71
2023/01/26 07:08:35;;;;;;;14.38;10.32;;;7.90;99.90;;;;;;5028681;29;20113;-72
2023/01/26 07:11:07;;;;;;;10.13;8.48;;;8.00;99.90;;;;;;5028234;29;20170;-73
2023/01/26 07:13:38;;;;;;;14.68;12.30;;;7.90;99.90;;;;;;5028274;29;20026;-71
2023/01/26 07:16:12;;;;;;;12.35;8.63;;;8.00;99.90;;;;;;5035356;29;20053;-75
2023/01/26 07:18:43;;;;;;;14.80;11.50;;;8.20;99.90;;;;;;5028280;29;20085;-71
2023/01/26 07:21:19;;;;;;;16.80;15.23;;;8.10;99.90;;;;;;5028238;29;20462;-73
2023/01/26 07:23:51;;;;;;;16.38;14.52;;;8.30;99.90;;;;;;5026901;29;20479;-73
2023/01/26 07:26:21;;;;;;;13.43;11.23;;;8.10;99.90;;;;;;5028347;29;20029;-71
2023/01/26 07:28:52;;;;;;;22.10;20.35;;;8.10;99.90;;;;;;5035609;29;20036;-74
2023/01/26 07:31:23;;;;;;;18.33;16.70;;;8.20;99.90;;;;;;5047471;29;20037;-71
2023/01/26 07:33:54;;;;;;;12.25;11.05;;;8.20;99.90;;;;;;5042152;29;20018;-71
2023/01/26 07:36:25;;;;;;;15.82;14.32;;;8.30;99.90;;;;;;5027469;29;20025;-74
2023/01/26 07:38:56;;;;;;;21.42;19.75;;;8.30;99.90;;;;;;5027441;29;20030;-74
2023/01/26 07:41:27;;;;;;;16.40;14.73;;;8.20;99.90;;;;;;5027797;29;20013;-71
2023/01/26 07:43:58;;;;;;;14.20;10.88;;;8.50;99.90;;;;;;5027882;29;20033;-71
2023/01/26 07:46:29;;;;;;;19.40;12.15;;;8.40;99.90;;;;;;5027699;29;20032;-70
2023/01/26 07:48:59;;;;;;;18.95;13.27;;;8.40;99.90;;;;;;5027646;29;20398;-74
2023/01/26 07:51:30;;;;;;;26.25;19.38;;;8.30;99.90;;;;;;5027488;29;20123;-70
2023/01/26 07:54:01;;;;;;;30.20;13.98;;;8.50;99.90;;;;;;5027738;29;20023;-75
2023/01/26 07:56:32;;;;;;;42.53;22.77;;;8.30;99.90;;;;;;5027826;29;20108;-70
2023/01/26 07:59:03;;;;;;;30.95;26.58;;;8.30;99.90;;;;;;5027933;29;20381;-70
2023/01/26 08:01:34;;;;;;;16.70;12.80;;;8.30;99.90;;;;;;5042078;29;20025;-74
2023/01/26 08:04:06;;;;;;;19.13;16.10;;;8.50;99.90;;;;;;5027970;29;20030;-74
2023/01/26 08:06:37;;;;;;;20.33;15.18;;;8.70;99.90;;;;;;5027987;29;20348;-70
2023/01/26 08:09:08;;;;;;;16.98;13.57;;;8.90;99.90;;;;;;5028065;29;20086;-74
2023/01/26 08:11:39;;;;;;;17.92;11.65;;;8.80;99.90;;;;;;5027796;29;20045;-70
2023/01/26 08:14:09;;;;;;;21.23;19.25;;;8.90;99.90;;;;;;5027180;29;20060;-74
2023/01/26 08:16:40;;;;;;;42.08;39.17;;;9.00;99.90;;;;;;5027668;29;20030;-71
2023/01/26 08:19:11;;;;;;;23.70;21.75;;;9.10;99.90;;;;;;5027453;29;20044;-70
2023/01/26 08:21:42;;;;;;;12.18;10.00;;;9.10;99.90;;;;;;5041820;29;20068;-74
2023/01/26 08:24:13;;;;;;;31.55;29.33;;;9.20;99.90;;;;;;5027638;29;20044;-70
2023/01/26 08:26:44;;;;;;;30.83;28.83;;;9.30;99.90;;;;;;5027605;29;20021;-74
2023/01/26 08:29:15;;;;;;;19.00;17.02;;;9.40;99.90;;;;;;5027629;29;20033;-74
2023/01/26 08:31:46;;;;;;;29.65;27.35;;;9.50;99.90;;;;;;5027533;29;20093;-72
2023/01/26 08:34:16;;;;;;;17.38;14.50;;;9.50;99.90;;;;;;5027687;29;20033;-70
2023/01/26 08:36:48;;;;;;;32.15;29.60;;;9.40;99.90;;;;;;5027565;29;20856;-74
2023/01/26 08:39:19;;;;;;;23.90;22.20;;;9.70;99.90;;;;;;5027578;29;20098;-74
2023/01/26 08:41:50;;;;;;;41.97;39.08;;;9.80;99.90;;;;;;5027479;29;20057;-74
2023/01/26 08:44:20;;;;;;;31.90;29.83;;;10.20;99.90;;;;;;5027435;29;20061;-70
2023/01/26 08:46:51;;;;;;;35.30;33.03;;;10.40;99.90;;;;;;5027600;29;20038;-74
2023/01/26 08:49:22;;;;;;;49.00;45.97;;;10.60;99.90;;;;;;5027001;29;20034;-71
2023/01/26 08:51:53;;;;;;;29.20;27.27;;;10.60;99.90;;;;;;5032256;29;20042;-69
2023/01/26 08:54:24;;;;;;;30.77;28.63;;;10.50;99.90;;;;;;5027296;29;20045;-74
2023/01/26 08:56:55;;;;;;;37.70;35.15;;;10.60;99.90;;;;;;5034268;29;20479;-74
2023/01/26 08:59:25;;;;;;;29.10;27.05;;;10.60;99.90;;;;;;5046526;29;20498;-69
2023/01/26 09:01:56;;;;;;;36.72;34.20;;;10.30;99.90;;;;;;5037054;29;20094;-69
2023/01/26 09:04:27;;;;;;;46.22;43.47;;;10.50;99.90;;;;;;5027219;29;20534;-68
2023/01/26 09:06:58;;;;;;;28.58;26.52;;;10.30;99.90;;;;;;5027381;29;20034;-74
2023/01/26 09:09:29;;;;;;;39.13;36.20;;;10.30;99.90;;;;;;5027034;29;20093;-74
2023/01/26 09:12:00;;;;;;;29.35;27.33;;;10.10;99.90;;;;;;5026723;29;20482;-69
2023/01/26 09:14:31;;;;;;;40.33;37.70;;;10.30;99.90;;;;;;5027076;29;20094;-68
2023/01/26 09:17:02;;;;;;;18.15;16.85;;;10.40;99.90;;;;;;5027263;29;20108;-72
2023/01/26 09:19:33;;;;;;;20.17;18.83;;;10.50;99.90;;;;;;5025980;29;20050;-68
2023/01/26 09:22:03;;;;;;;22.67;20.77;;;10.60;99.90;;;;;;5027265;29;20034;-70
2023/01/26 09:24:34;;;;;;;33.03;30.63;;;10.70;99.90;;;;;;5027305;29;20116;-69
2023/01/26 09:27:05;;;;;;;21.90;20.40;;;10.80;99.90;;;;;;5030633;29;20108;-70
2023/01/26 09:29:36;;;;;;;22.55;20.83;;;11.10;99.90;;;;;;5029901;29;20037;-70
2023/01/26 09:32:07;;;;;;;27.27;25.33;;;11.30;99.90;;;;;;5029416;29;20037;-71
2023/01/26 09:34:37;;;;;;;39.55;36.78;;;10.80;99.90;;;;;;5029789;29;20026;-70
2023/01/26 09:37:09;;;;;;;41.90;39.25;;;10.70;99.90;;;;;;5030473;29;20840;-73
2023/01/26 09:39:40;;;;;;;35.97;33.30;;;10.40;99.90;;;;;;5029915;29;20036;-70
2023/01/26 09:42:26;;;;;;;29.15;27.10;;;10.60;99.90;;;;;;5029355;29;20033;-70
2023/01/26 09:45:12;;;;;;;13.82;12.70;;;10.30;99.90;;;;;;5030020;29;20470;-70
2023/01/26 09:48:22;;;;;;;42.60;39.53;;;10.50;99.90;;;;;;5030232;29;20082;-70
2023/01/26 09:51:09;;;;;;;22.58;20.90;;;10.30;99.90;;;;;;5027961;29;20049;-74
2023/01/26 09:53:58;;;;;;;13.13;7.25;;;10.40;99.90;;;;;;5029958;29;20050;-71
2023/01/26 09:56:31;;;;;;;12.18;7.47;;;10.30;99.90;;;;;;5030248;29;20386;-73
2023/01/26 09:59:35;;;;;;;10.30;8.10;;;10.70;99.90;;;;;;5030181;29;20021;-70
2023/01/26 10:02:12;;;;;;;28.98;27.05;;;10.50;99.90;;;;;;5029545;29;20491;-70
2023/01/26 10:04:48;;;;;;;23.65;21.70;;;11.00;99.90;;;;;;5030075;29;20073;-70
2023/01/26 10:07:19;;;;;;;21.65;19.77;;;11.00;99.90;;;;;;5030020;29;20053;-70
2023/01/26 10:09:52;;;;;;;34.55;32.20;;;11.20;99.90;;;;;;5029787;29;20073;-70
2023/01/26 10:12:29;;;;;;;35.45;32.65;;;11.00;99.90;;;;;;5029784;29;20100;-70
2023/01/26 10:15:27;;;;;;;37.85;35.28;;;11.30;99.90;;;;;;5029951;29;20025;-71
2023/01/26 10:18:06;;;;;;;29.02;27.15;;;11.60;99.90;;;;;;5029846;29;20038;-69
2023/01/26 10:20:46;;;;;;;38.67;36.17;;;11.20;99.90;;;;;;5029665;29;20120;-69
2023/01/26 10:23:22;;;;;;;23.08;21.45;;;11.50;99.90;;;;;;5029763;29;20289;-70
2023/01/26 10:25:57;;;;;;;26.92;24.85;;;11.40;99.90;;;;;;5029724;29;20050;-69
2023/01/26 10:28:29;;;;;;;21.88;20.10;;;11.30;99.90;;;;;;5029709;29;20535;-74
2023/01/26 10:31:04;;;;;;;20.08;18.50;;;11.00;99.90;;;;;;5029518;29;20487;-73
2023/01/26 10:33:36;;;;;;;49.20;45.90;;;11.10;99.90;;;;;;5029371;29;20104;-70
2023/01/26 10:36:09;;;;;;;50.05;46.60;;;10.50;99.90;;;;;;5029063;29;20030;-70
2023/01/26 10:38:42;;;;;;;15.10;13.55;;;10.40;99.90;;;;;;5029239;29;20041;-70
2023/01/26 10:41:13;;;;;;;14.75;10.70;;;10.40;99.90;;;;;;5029234;29;20022;-69
2023/01/26 10:43:55;;;;;;;19.45;17.50;;;10.60;99.90;;;;;;5029189;29;20033;-70
2023/01/26 10:46:28;;;;;;;12.32;7.65;;;10.50;99.90;;;;;;5029176;29;20029;-70
2023/01/26 10:49:08;;;;;;;10.80;7.82;;;10.40;99.90;;;;;;5029094;29;20474;-70
2023/01/26 10:51:43;;;;;;;12.88;7.25;;;10.60;99.90;;;;;;5029092;29;20586;-72
2023/01/26 10:54:24;;;;;;;15.98;12.68;;;10.50;99.90;;;;;;5029231;29;20140;-70
2023/01/26 10:57:06;;;;;;;17.52;16.13;;;10.30;99.90;;;;;;5029201;29;20097;-74
2023/01/26 10:59:44;;;;;;;16.00;14.60;;;10.40;99.90;;;;;;5029294;29;20029;-70
2023/01/26 11:02:18;;;;;;;23.35;21.40;;;10.50;99.90;;;;;;5029009;29;20021;-70
2023/01/26 11:05:08;;;;;;;21.83;19.77;;;10.50;99.90;;;;;;5029044;29;20049;-72
2023/01/26 11:07:44;;;;;;;12.90;11.48;;;10.40;99.90;;;;;;5028980;29;20048;-70
2023/01/26 11:10:34;;;;;;;37.58;35.00;;;10.00;99.90;;;;;;5028781;29;20065;-74
2023/01/26 11:13:08;;;;;;;33.40;30.90;;;10.10;99.90;;;;;;5042797;29;20034;-69
2023/01/26 11:15:41;;;;;;;35.90;32.83;;;10.20;99.90;;;;;;5042824;29;20030;-69
2023/01/26 11:18:31;;;;;;;42.83;39.90;;;10.10;99.90;;;;;;5028630;29;20040;-69
2023/01/26 11:21:21;;;;;;;13.20;11.65;;;10.30;99.90;;;;;;5028410;29;20053;-70
2023/01/26 11:24:13;;;;;;;39.10;36.17;;;10.50;99.90;;;;;;5042723;29;20443;-69
2023/01/26 11:27:09;;;;;;;9.30;7.25;;;10.10;99.90;;;;;;5028474;29;20089;-70
2023/01/26 11:29:56;;;;;;;12.85;8.27;;;10.30;99.90;;;;;;5028611;29;20054;-70
2023/01/26 11:32:55;;;;;;;11.40;7.40;;;10.40;99.90;;;;;;5028281;29;20056;-74
2023/01/26 11:36:01;;;;;;;10.18;7.65;;;10.10;99.90;;;;;;5028397;29;20025;-70
2023/01/26 11:38:43;;;;;;;12.32;8.25;;;10.40;99.90;;;;;;5027883;29;20482;-69
2023/01/26 11:41:49;;;;;;;12.32;8.75;;;10.30;99.90;;;;;;5028373;29;20041;-70
2023/01/26 11:45:00;;;;;;;30.33;27.92;;;10.30;99.90;;;;;;5027874;29;20109;-69
2023/01/26 11:47:50;;;;;;;12.73;7.88;;;10.00;99.90;;;;;;5027516;29;20037;-70
2023/01/26 11:50:40;;;;;;;11.10;7.40;;;10.10;99.90;;;;;;5028133;29;20048;-70
2023/01/26 11:53:53;;;;;;;15.38;13.90;;;10.00;99.90;;;;;;5028073;29;20116;-69
2023/01/26 11:56:30;;;;;;;13.02;10.25;;;10.00;99.90;;;;;;5026879;29;20521;-71
2023/01/26 11:59:10;;;;;;;12.32;8.35;;;9.90;99.90;;;;;;5027955;29;20036;-69
2023/01/26 12:02:03;;;;;;;27.98;25.55;;;9.80;99.90;;;;;;5042144;29;20030;-70
2023/01/26 12:04:37;;;;;;;10.68;7.20;;;9.70;99.90;;;;;;5027487;29;20120;-73
2023/01/26 12:07:16;;;;;;;11.80;8.13;;;9.80;99.90;;;;;;5042102;29;20382;-69
2023/01/26 12:09:51;;;;;;;18.77;16.52;;;9.90;99.90;;;;;;5028144;29;20542;-70
2023/01/26 12:12:25;;;;;;;31.42;28.75;;;9.50;99.90;;;;;;5042101;29;20368;-70
2023/01/26 12:15:30;;;;;;;20.23;18.38;;;9.80;99.90;;;;;;5027730;29;20408;-70
2023/01/26 12:18:01;;;;;;;10.88;7.82;;;10.00;99.90;;;;;;5027828;29;20112;-69
2023/01/26 12:20:58;;;;;;;19.20;16.27;;;9.80;99.90;;;;;;5027519;29;20432;-70
2023/01/26 12:23:56;;;;;;;13.38;8.85;;;9.70;99.90;;;;;;5027437;29;20570;-70
2023/01/26 12:26:33;;;;;;;23.75;20.73;;;9.50;99.90;;;;;;5027807;29;20022;-69
2023/01/26 12:29:39;;;;;;;11.35;7.88;;;9.70;99.90;;;;;;5027817;29;20029;-70
2023/01/26 12:32:12;;;;;;;11.98;8.07;;;9.60;99.90;;;;;;5027569;29;20080;-70
2023/01/26 12:34:44;;;;;;;10.60;7.85;;;9.70;99.90;;;;;;5027721;29;20030;-70
2023/01/26 12:37:36;;;;;;;29.15;26.35;;;9.60;99.90;;;;;;5027564;29;20025;-70
2023/01/26 12:40:46;;;;;;;12.48;8.30;;;9.40;99.90;;;;;;5027693;29;20036;-70
2023/01/26 12:43:42;;;;;;;11.02;8.48;;;9.40;99.90;;;;;;5027703;29;20534;-69
2023/01/26 12:46:14;;;;;;;14.60;9.25;;;9.50;99.90;;;;;;5027625;29;20018;-69
2023/01/26 12:48:47;;;;;;;26.38;23.77;;;9.50;99.90;;;;;;5041706;29;20074;-70
2023/01/26 12:51:36;;;;;;;17.00;15.15;;;9.40;99.90;;;;;;5041832;29;20086;-70
2023/01/26 12:54:10;;;;;;;23.63;21.33;;;9.50;99.90;;;;;;5027728;29;20493;-70
2023/01/26 12:56:52;;;;;;;28.20;25.25;;;9.60;99.90;;;;;;5027432;29;20534;-69
2023/01/26 12:59:26;;;;;;;18.50;10.02;;;9.40;99.90;;;;;;5028676;29;20447;-69
2023/01/26 13:01:57;;;;;;;25.77;23.08;;;9.70;99.90;;;;;;5031055;29;20529;-70
2023/01/26 13:04:28;;;;;;;14.93;8.98;;;9.50;99.90;;;;;;5031263;29;20391;-70
2023/01/26 13:07:23;;;;;;;23.73;21.80;;;9.70;99.90;;;;;;5031016;29;20025;-70
2023/01/26 13:10:17;;;;;;;27.50;24.25;;;9.70;99.90;;;;;;5030193;29;20041;-69
2023/01/26 13:12:57;;;;;;;21.83;18.05;;;9.40;99.90;;;;;;5030454;29;20071;-74
2023/01/26 13:15:30;;;;;;;25.10;17.98;;;9.60;99.90;;;;;;5030876;29;20097;-69
2023/01/26 13:18:03;;;;;;;19.98;10.48;;;9.60;99.90;;;;;;5030801;29;20036;-70
2023/01/26 13:20:45;;;;;;;19.75;10.00;;;9.30;99.90;;;;;;5030541;29;20057;-70
2023/01/26 13:23:40;;;;;;;14.18;9.35;;;9.60;99.90;;;;;;5030716;29;20124;-70
2023/01/26 13:26:22;;;;;;;13.05;8.32;;;9.60;99.90;;;;;;5030357;29;20128;-70
2023/01/26 13:29:32;;;;;;;15.80;8.10;;;9.40;99.90;;;;;;5044969;29;20029;-69
2023/01/26 13:32:08;;;;;;;13.13;7.53;;;9.60;99.90;;;;;;5030746;29;20041;-70
2023/01/26 13:34:45;;;;;;;12.65;7.28;;;9.40;99.90;;;;;;5030608;29;20032;-70
2023/01/26 13:37:26;;;;;;;20.88;19.00;;;9.10;99.90;;;;;;5030482;29;20138;-73
2023/01/26 13:40:08;;;;;;;17.00;15.13;;;9.40;99.90;;;;;;5030384;29;20474;-73
2023/01/26 13:43:05;;;;;;;12.82;11.38;;;9.40;99.90;;;;;;5030397;29;20037;-70
2023/01/26 13:45:39;;;;;;;13.55;11.23;;;9.40;99.90;;;;;;5029077;29;20082;-70
2023/01/26 13:48:34;;;;;;;24.80;19.45;;;9.20;99.90;;;;;;5030361;29;20089;-70
2023/01/26 13:51:09;;;;;;;21.25;16.70;;;9.20;99.90;;;;;;5029578;29;20061;-69
2023/01/26 13:53:47;;;;;;;16.05;14.02;;;9.30;99.90;;;;;;5044511;29;20040;-70
2023/01/26 13:56:25;;;;;;;16.85;14.20;;;9.30;99.90;;;;;;5030156;29;20029;-70
2023/01/26 13:59:23;;;;;;;21.65;19.60;;;9.30;99.90;;;;;;5030071;29;20034;-70
2023/01/26 14:01:56;;;;;;;14.30;7.28;;;9.40;99.90;;;;;;5028689;29;20044;-70
2023/01/26 14:04:34;;;;;;;10.40;6.85;;;9.40;99.90;;;;;;5029984;29;20100;-70
2023/01/26 14:07:08;;;;;;;11.68;7.22;;;9.30;99.90;;;;;;5030120;29;20382;-69
2023/01/26 14:09:48;;;;;;;19.20;12.88;;;9.20;99.90;;;;;;5029676;29;20062;-70